Terminal Aerodrome Forecast
Issued by NWS Milwaukee/Sullivan, WI

Home | Current Version | Previous Version | Text Only | Print | Product List | Glossary On
Versions: 1 2 3 4 5 6 7 8 9 10 11 12 13 14 15 16 17 18 19 20 21 22 23 24 25 26 27 28 29 30 31 32 33 34 35 36 37 38 39 40 41 42 43 44 45 46 47 48 49 50
000
FTUS43 KMKX 231741
TAFMKE
TAF
KMKE 231741Z 2318/2424 20007KT P6SM -SHRA SCT025 OVC035
     FM232000 14007KT 6SM -SHRA OVC025
     FM240000 15005KT 3SM -SHRA BR OVC015
     FM240400 06005KT 3SM -SHRA BR OVC003
     FM241200 02008KT 4SM BR OVC003
     FM241900 02013G23KT P6SM OVC010=

USA.gov is the U.S. government's official web portal to all federal, state and local government web resources and services.